Time;durP1;ratioP1;P1;durP2;ratioP2;P2;SDS_P1;SDS_P2;PMS_P1;PMS_P2;Temp;Humidity;BMP_temperature;BMP_pressure;BME280_temperature;BME280_humidity;BME280_pressure;Samples;Min_cycle;Max_cycle;Signal;HPM_P1;HPM_P2
2023/06/10 00:00:31;;;;;;;0.50;0.32;;;8.90;99.90;;;;;;4947284;28;20051;-63
2023/06/10 00:02:59;;;;;;;0.43;0.43;;;8.90;99.90;;;;;;4939963;28;20055;-71
2023/06/10 00:05:29;;;;;;;1.75;0.60;;;8.90;99.90;;;;;;4939598;28;20043;-67
2023/06/10 00:07:57;;;;;;;0.85;0.85;;;8.80;99.90;;;;;;4950422;28;20101;-66
2023/06/10 00:10:24;;;;;;;0.70;0.60;;;8.80;99.90;;;;;;4940562;28;20082;-65
2023/06/10 00:12:51;;;;;;;1.52;1.42;;;8.80;99.90;;;;;;4938259;28;20074;-71
2023/06/10 00:15:18;;;;;;;2.40;1.42;;;8.70;99.90;;;;;;4943137;28;20659;-78
2023/06/10 00:17:45;;;;;;;0.57;0.57;;;8.70;99.90;;;;;;4941353;28;20087;-71
2023/06/10 00:20:13;;;;;;;3.50;0.45;;;8.70;99.90;;;;;;4938090;28;20051;-78
2023/06/10 00:22:41;;;;;;;1.73;0.50;;;8.60;99.90;;;;;;4941765;28;20867;-82
2023/06/10 00:25:10;;;;;;;1.00;0.50;;;8.60;99.90;;;;;;4934880;28;20055;-67
2023/06/10 00:27:38;;;;;;;3.30;1.48;;;8.60;99.90;;;;;;4953730;28;20130;-69
2023/06/10 00:30:06;;;;;;;1.83;0.77;;;8.50;99.90;;;;;;4942866;28;20783;-63
2023/06/10 00:32:35;;;;;;;0.60;0.47;;;8.50;99.90;;;;;;4945928;28;20062;-64
2023/06/10 00:35:03;;;;;;;1.10;0.70;;;8.50;99.90;;;;;;4937040;28;20523;-65
2023/06/10 00:37:32;;;;;;;0.60;0.45;;;8.40;99.90;;;;;;4944495;28;20055;-68
2023/06/10 00:39:59;;;;;;;0.77;0.50;;;8.40;99.90;;;;;;4940327;28;20111;-65
2023/06/10 00:42:26;;;;;;;4.68;1.20;;;8.40;99.90;;;;;;4964883;28;20743;-69
2023/06/10 00:44:54;;;;;;;0.35;0.32;;;8.30;99.90;;;;;;4943167;28;20138;-67
2023/06/10 00:47:22;;;;;;;2.03;0.70;;;8.30;99.90;;;;;;4935795;28;20091;-71
2023/06/10 00:49:50;;;;;;;2.78;1.05;;;8.30;99.90;;;;;;4948349;28;20050;-68
2023/06/10 00:52:20;;;;;;;1.25;0.50;;;8.30;99.90;;;;;;4950932;28;20128;-78
2023/06/10 00:54:47;;;;;;;0.63;0.50;;;8.30;99.90;;;;;;4947774;28;20233;-67
2023/06/10 00:57:15;;;;;;;1.63;0.75;;;8.20;99.90;;;;;;4942037;28;20728;-66
2023/06/10 00:59:47;;;;;;;2.05;0.50;;;8.20;99.90;;;;;;4946123;28;20058;-64
2023/06/10 01:02:14;;;;;;;2.75;0.85;;;8.20;99.90;;;;;;4943520;28;20473;-67
2023/06/10 01:04:41;;;;;;;1.60;0.73;;;8.20;99.90;;;;;;4941845;28;20055;-66
2023/06/10 01:07:28;;;;;;;1.60;0.60;;;8.20;99.90;;;;;;4939945;28;20148;-71
2023/06/10 01:10:40;;;;;;;0.70;0.43;;;8.20;99.90;;;;;;4942187;28;20213;-66
2023/06/10 01:13:11;;;;;;;1.98;1.00;;;8.20;99.90;;;;;;4942075;28;20528;-68
2023/06/10 01:15:38;;;;;;;4.50;0.93;;;8.20;99.90;;;;;;4938703;28;20063;-64
2023/06/10 01:18:14;;;;;;;0.73;0.52;;;8.20;99.90;;;;;;4946347;28;20506;-66
2023/06/10 01:20:44;;;;;;;2.05;0.55;;;8.10;99.90;;;;;;4946240;28;20051;-66
2023/06/10 01:23:11;;;;;;;6.25;0.68;;;8.10;99.90;;;;;;4940901;28;20087;-64
2023/06/10 01:25:45;;;;;;;1.52;0.80;;;8.10;99.90;;;;;;4954824;28;20426;-74
2023/06/10 01:28:43;;;;;;;4.35;0.75;;;8.10;99.90;;;;;;4946495;28;20079;-66
2023/06/10 01:31:22;;;;;;;1.27;1.00;;;8.10;99.90;;;;;;4941104;28;20129;-69
2023/06/10 01:33:53;;;;;;;2.17;0.93;;;8.10;99.90;;;;;;4942293;28;20059;-68
2023/06/10 01:36:23;;;;;;;1.30;0.90;;;8.10;99.90;;;;;;4958770;28;20059;-63
2023/06/10 01:38:53;;;;;;;4.65;0.90;;;8.10;99.90;;;;;;4934915;28;20078;-65
2023/06/10 01:41:21;;;;;;;0.55;0.52;;;8.10;99.90;;;;;;4940905;28;20082;-70
2023/06/10 01:43:49;;;;;;;1.88;0.93;;;8.10;99.90;;;;;;4952813;28;20076;-66
2023/06/10 01:46:19;;;;;;;0.75;0.70;;;8.10;99.90;;;;;;4940941;28;20055;-81
2023/06/10 01:48:47;;;;;;;0.82;0.68;;;8.10;99.90;;;;;;4944933;28;20065;-66
2023/06/10 01:51:15;;;;;;;0.60;0.60;;;8.10;99.90;;;;;;4945964;28;20521;-63
2023/06/10 01:53:42;;;;;;;2.63;1.48;;;8.10;99.90;;;;;;4941870;28;20071;-64
2023/06/10 01:56:09;;;;;;;1.35;1.02;;;8.10;99.90;;;;;;4943152;28;20060;-69
2023/06/10 01:58:36;;;;;;;1.52;0.75;;;8.10;99.90;;;;;;4947454;28;20061;-65
2023/06/10 02:01:03;;;;;;;1.00;0.85;;;8.10;99.90;;;;;;4934515;28;20162;-63
2023/06/10 02:03:30;;;;;;;4.20;1.48;;;8.10;99.90;;;;;;4945275;28;20047;-64
2023/06/10 02:05:57;;;;;;;1.08;0.70;;;8.10;99.90;;;;;;4949983;28;20143;-65
2023/06/10 02:08:27;;;;;;;0.80;0.70;;;8.10;99.90;;;;;;4946188;28;20047;-64
2023/06/10 02:10:54;;;;;;;1.08;0.47;;;8.20;99.90;;;;;;4930844;28;20086;-63
2023/06/10 02:13:21;;;;;;;1.70;0.60;;;8.20;99.90;;;;;;4946444;28;20146;-68
2023/06/10 02:15:54;;;;;;;1.20;0.95;;;8.20;99.90;;;;;;4953605;28;20183;-73
2023/06/10 02:18:21;;;;;;;2.25;0.85;;;8.20;99.90;;;;;;4947747;28;20074;-63
2023/06/10 02:20:48;;;;;;;1.35;0.60;;;8.20;99.90;;;;;;4944311;28;20055;-68
2023/06/10 02:23:15;;;;;;;1.30;1.20;;;8.20;99.90;;;;;;4950634;28;20067;-74
2023/06/10 02:25:42;;;;;;;2.00;0.90;;;8.20;99.90;;;;;;4947873;28;20783;-67
2023/06/10 02:28:09;;;;;;;1.83;0.93;;;8.30;99.90;;;;;;4947718;28;20621;-64
2023/06/10 02:30:40;;;;;;;2.20;1.00;;;8.30;99.90;;;;;;4960863;28;20166;-66
2023/06/10 02:33:11;;;;;;;2.15;0.90;;;8.30;99.90;;;;;;4944791;28;20090;-63
2023/06/10 02:35:39;;;;;;;1.10;0.80;;;8.30;99.90;;;;;;4944437;28;20520;-66
2023/06/10 02:38:06;;;;;;;1.38;1.27;;;8.30;99.90;;;;;;4963632;28;20055;-72
2023/06/10 02:40:34;;;;;;;1.00;0.75;;;8.30;99.90;;;;;;4947232;28;20429;-64
2023/06/10 02:43:01;;;;;;;1.63;0.80;;;8.30;99.90;;;;;;4947327;28;20059;-65
2023/06/10 02:45:28;;;;;;;1.15;0.65;;;8.30;99.90;;;;;;4957731;28;20058;-78
2023/06/10 02:47:57;;;;;;;0.63;0.60;;;8.40;99.90;;;;;;4949124;28;20071;-72
2023/06/10 02:50:24;;;;;;;1.73;0.95;;;8.40;99.90;;;;;;4952270;28;20079;-63
2023/06/10 02:53:02;;;;;;;1.20;0.90;;;8.40;99.90;;;;;;4936065;28;20954;-66
2023/06/10 02:55:30;;;;;;;0.82;0.70;;;8.40;99.90;;;;;;4945474;28;20106;-64
2023/06/10 02:58:01;;;;;;;1.23;1.08;;;8.40;99.90;;;;;;4949256;28;20151;-64
2023/06/10 03:00:28;;;;;;;1.65;1.10;;;8.40;99.90;;;;;;4944572;28;20086;-64
2023/06/10 03:02:57;;;;;;;2.13;0.68;;;8.50;99.90;;;;;;4942581;28;20425;-67
2023/06/10 03:05:30;;;;;;;0.85;0.80;;;8.60;99.90;;;;;;4941520;28;20056;-72
2023/06/10 03:07:59;;;;;;;0.65;0.57;;;8.60;99.90;;;;;;4946368;28;20067;-66
2023/06/10 03:10:27;;;;;;;0.82;0.68;;;8.70;99.90;;;;;;4943992;28;20066;-65
2023/06/10 03:12:54;;;;;;;1.70;0.80;;;8.70;99.90;;;;;;4935409;28;20051;-66
2023/06/10 03:15:24;;;;;;;3.63;0.80;;;8.80;99.90;;;;;;4941772;28;20404;-66
2023/06/10 03:17:51;;;;;;;4.35;0.85;;;8.80;99.90;;;;;;4938863;28;20086;-63
2023/06/10 03:20:18;;;;;;;0.75;0.70;;;8.90;99.90;;;;;;4957851;28;20059;-63
2023/06/10 03:22:46;;;;;;;0.82;0.57;;;8.90;99.90;;;;;;4946847;28;20055;-66
2023/06/10 03:25:15;;;;;;;1.05;0.80;;;8.90;99.90;;;;;;4943531;28;20107;-66
2023/06/10 03:27:47;;;;;;;2.17;0.80;;;8.90;99.90;;;;;;4950597;28;20191;-68
2023/06/10 03:30:14;;;;;;;1.67;1.00;;;9.00;99.90;;;;;;4956640;28;20091;-63
2023/06/10 03:32:43;;;;;;;1.67;0.63;;;9.10;99.90;;;;;;4945226;28;20678;-69
2023/06/10 03:35:13;;;;;;;1.02;0.70;;;9.10;99.90;;;;;;4937759;28;20441;-64
2023/06/10 03:37:40;;;;;;;1.50;1.13;;;9.20;99.90;;;;;;4944098;28;20461;-65
2023/06/10 03:40:08;;;;;;;1.45;0.77;;;9.20;99.90;;;;;;4943924;28;20398;-78
2023/06/10 03:42:37;;;;;;;4.07;1.05;;;9.30;99.90;;;;;;4947875;28;20134;-64
2023/06/10 03:45:05;;;;;;;0.98;0.65;;;9.30;99.90;;;;;;4937790;28;20106;-75
2023/06/10 03:47:35;;;;;;;4.70;0.88;;;9.40;99.90;;;;;;4930547;28;20092;-64
2023/06/10 03:50:05;;;;;;;2.03;1.08;;;9.40;99.90;;;;;;4943546;28;20060;-65
2023/06/10 03:52:35;;;;;;;1.25;1.00;;;9.40;99.90;;;;;;4938248;28;20067;-69
2023/06/10 03:55:02;;;;;;;1.17;0.85;;;9.50;99.90;;;;;;4944111;28;20782;-70
2023/06/10 03:57:30;;;;;;;1.55;0.93;;;9.50;99.90;;;;;;4958660;28;20061;-66
2023/06/10 03:59:58;;;;;;;4.85;1.95;;;9.50;99.90;;;;;;4937836;28;20055;-64
2023/06/10 04:02:25;;;;;;;1.65;0.88;;;9.60;99.90;;;;;;4938752;28;20059;-67
2023/06/10 04:04:53;;;;;;;0.90;0.75;;;9.60;99.90;;;;;;4949581;28;20143;-68
2023/06/10 04:07:20;;;;;;;1.48;0.70;;;9.70;99.90;;;;;;4939104;28;20146;-68
2023/06/10 04:09:47;;;;;;;1.65;1.05;;;9.70;99.90;;;;;;4944267;28;20101;-64
2023/06/10 04:12:14;;;;;;;2.25;1.00;;;9.80;99.90;;;;;;4936519;28;20110;-66
2023/06/10 04:14:41;;;;;;;1.30;1.20;;;9.80;99.90;;;;;;4938959;28;20932;-67
2023/06/10 04:17:10;;;;;;;1.50;0.60;;;9.90;99.90;;;;;;4942165;28;20500;-63
2023/06/10 04:19:38;;;;;;;7.72;1.10;;;9.90;99.90;;;;;;4959683;28;20046;-66
2023/06/10 04:22:05;;;;;;;2.95;1.00;;;10.00;99.90;;;;;;4939713;28;20166;-71
2023/06/10 04:24:32;;;;;;;1.33;0.90;;;10.00;99.90;;;;;;4951707;28;20055;-64
2023/06/10 04:27:00;;;;;;;1.83;1.25;;;10.10;99.90;;;;;;4956631;28;20054;-63
2023/06/10 04:29:27;;;;;;;2.47;1.40;;;10.20;99.90;;;;;;4935244;28;20044;-70
2023/06/10 04:31:54;;;;;;;3.53;1.00;;;10.20;99.90;;;;;;4936638;28;20054;-64
2023/06/10 04:34:22;;;;;;;0.70;0.68;;;10.30;99.90;;;;;;4949181;28;20055;-66
2023/06/10 04:36:50;;;;;;;1.10;0.70;;;10.30;99.90;;;;;;4936818;28;20071;-70
2023/06/10 04:39:18;;;;;;;4.38;1.23;;;10.40;99.90;;;;;;4967874;28;20616;-70
2023/06/10 04:41:46;;;;;;;3.60;1.50;;;10.40;99.90;;;;;;4939991;28;20055;-70
2023/06/10 04:44:13;;;;;;;3.53;1.13;;;10.50;99.90;;;;;;4957410;28;20062;-66
2023/06/10 04:46:41;;;;;;;4.18;0.90;;;10.60;99.90;;;;;;4937134;28;20051;-64
2023/06/10 04:49:09;;;;;;;1.27;1.17;;;10.60;99.90;;;;;;4938918;28;20139;-67
2023/06/10 04:51:36;;;;;;;2.17;0.82;;;10.70;99.90;;;;;;4948193;28;20082;-78
2023/06/10 04:54:03;;;;;;;2.05;1.00;;;10.80;99.90;;;;;;4938807;28;20092;-72
2023/06/10 04:56:30;;;;;;;1.98;1.05;;;10.80;99.90;;;;;;4932856;28;20096;-75
2023/06/10 04:58:57;;;;;;;1.92;0.82;;;10.90;99.90;;;;;;4939170;28;20497;-68
2023/06/10 05:01:25;;;;;;;9.45;1.15;;;11.00;99.90;;;;;;4935198;28;20580;-73
2023/06/10 05:03:52;;;;;;;1.52;0.85;;;11.00;99.90;;;;;;4942476;28;20051;-64
2023/06/10 05:06:19;;;;;;;2.67;1.48;;;11.00;99.90;;;;;;4932693;28;20047;-73
2023/06/10 05:08:45;;;;;;;3.13;0.90;;;11.10;99.90;;;;;;4942805;28;20146;-67
2023/06/10 05:11:12;;;;;;;5.85;1.23;;;11.20;99.90;;;;;;4939947;28;20095;-66
2023/06/10 05:13:41;;;;;;;1.02;0.70;;;11.30;99.90;;;;;;4937527;28;20107;-64
2023/06/10 05:16:09;;;;;;;2.72;0.95;;;11.50;99.90;;;;;;4941567;28;20626;-74
2023/06/10 05:18:36;;;;;;;3.28;0.77;;;11.60;99.90;;;;;;4944944;28;20528;-67
2023/06/10 05:21:03;;;;;;;1.25;0.93;;;11.80;99.90;;;;;;4931074;28;21407;-72
2023/06/10 05:23:30;;;;;;;0.75;0.73;;;11.80;99.90;;;;;;4943881;28;20433;-64
2023/06/10 05:25:58;;;;;;;0.90;0.90;;;12.00;99.90;;;;;;4942793;28;20520;-67
2023/06/10 05:28:25;;;;;;;1.55;0.68;;;12.10;99.90;;;;;;4942104;28;20149;-67
2023/06/10 05:30:52;;;;;;;1.85;0.80;;;12.20;99.90;;;;;;4938663;28;20114;-67
2023/06/10 05:33:19;;;;;;;3.72;0.80;;;12.40;99.90;;;;;;4946179;28;20062;-66
2023/06/10 05:35:46;;;;;;;1.80;0.88;;;12.40;99.90;;;;;;4946151;28;20091;-71
2023/06/10 05:38:13;;;;;;;6.13;1.13;;;12.50;99.90;;;;;;4938524;28;20158;-65
2023/06/10 05:40:40;;;;;;;0.80;0.70;;;12.60;99.90;;;;;;4939833;28;20138;-63
2023/06/10 05:43:07;;;;;;;3.03;1.08;;;12.70;99.90;;;;;;4941069;28;20082;-67
2023/06/10 05:45:34;;;;;;;2.78;1.25;;;12.90;99.90;;;;;;4938504;28;20051;-66
2023/06/10 05:48:01;;;;;;;3.42;1.60;;;13.00;99.90;;;;;;4936781;28;20078;-68
2023/06/10 05:50:28;;;;;;;1.05;0.73;;;13.00;99.90;;;;;;4947357;28;20680;-68
2023/06/10 05:52:54;;;;;;;1.48;0.98;;;13.20;99.90;;;;;;4940882;28;20141;-67
2023/06/10 05:55:21;;;;;;;0.88;0.80;;;13.30;99.90;;;;;;4939714;28;20087;-64
2023/06/10 05:57:59;;;;;;;2.20;1.30;;;13.30;99.90;;;;;;4939428;28;20097;-68
2023/06/10 06:00:26;;;;;;;1.13;0.82;;;13.30;99.90;;;;;;4944114;28;20065;-66
2023/06/10 06:02:54;;;;;;;3.03;1.63;;;13.40;99.90;;;;;;4936416;28;20066;-69
2023/06/10 06:05:21;;;;;;;2.13;0.95;;;13.40;99.90;;;;;;4944190;28;20051;-68
2023/06/10 06:07:48;;;;;;;2.53;0.93;;;13.50;99.90;;;;;;4957019;28;20051;-73
2023/06/10 06:10:17;;;;;;;1.67;0.90;;;13.60;99.90;;;;;;4939826;28;20106;-64
2023/06/10 06:12:45;;;;;;;1.83;0.90;;;13.60;99.90;;;;;;4939132;28;20927;-64
2023/06/10 06:15:12;;;;;;;1.70;0.90;;;13.80;99.90;;;;;;4945291;28;20090;-66
2023/06/10 06:17:38;;;;;;;0.93;0.57;;;13.90;99.90;;;;;;4948146;28;20647;-66
2023/06/10 06:20:06;;;;;;;1.88;0.60;;;14.00;99.90;;;;;;4943666;28;20058;-67
2023/06/10 06:22:33;;;;;;;0.93;0.50;;;14.00;99.90;;;;;;4944866;28;20050;-69
2023/06/10 06:25:00;;;;;;;5.35;1.23;;;14.10;99.90;;;;;;4937663;28;20171;-64
2023/06/10 06:27:28;;;;;;;0.75;0.75;;;14.20;99.90;;;;;;4938791;28;20055;-64
2023/06/10 06:29:55;;;;;;;0.82;0.75;;;14.20;99.90;;;;;;4958749;28;20106;-64
2023/06/10 06:32:24;;;;;;;1.08;0.88;;;14.20;99.90;;;;;;4950617;28;20991;-67
2023/06/10 06:34:54;;;;;;;5.53;1.00;;;14.30;99.90;;;;;;4939956;28;20071;-66
2023/06/10 06:37:24;;;;;;;3.40;0.85;;;14.40;99.90;;;;;;4944611;28;20126;-66
2023/06/10 06:40:02;;;;;;;2.63;0.80;;;14.40;99.90;;;;;;4939328;28;20051;-68
2023/06/10 06:42:30;;;;;;;0.43;0.43;;;14.50;99.50;;;;;;4942383;28;20462;-65
2023/06/10 06:45:02;;;;;;;1.70;1.17;;;14.50;99.30;;;;;;4952826;28;20086;-74
2023/06/10 06:47:29;;;;;;;2.05;0.90;;;14.50;99.20;;;;;;4940500;28;20054;-70
2023/06/10 06:49:56;;;;;;;0.82;0.70;;;14.60;97.90;;;;;;4943623;28;20059;-64
2023/06/10 06:52:23;;;;;;;3.20;1.10;;;14.70;97.80;;;;;;4933649;28;20051;-76
2023/06/10 06:54:50;;;;;;;1.30;0.80;;;14.70;98.40;;;;;;4950254;28;20117;-74
2023/06/10 06:57:17;;;;;;;0.80;0.50;;;14.70;98.10;;;;;;4940991;28;20063;-73
2023/06/10 06:59:44;;;;;;;1.23;0.68;;;14.90;97.70;;;;;;4937305;28;20135;-70
2023/06/10 07:02:11;;;;;;;0.73;0.60;;;14.90;97.10;;;;;;4939929;28;20114;-66
2023/06/10 07:04:39;;;;;;;1.30;1.20;;;15.00;96.60;;;;;;4940182;28;20087;-78
2023/06/10 07:07:08;;;;;;;3.63;1.30;;;15.10;96.30;;;;;;4934611;28;20067;-73
2023/06/10 07:09:37;;;;;;;2.33;0.93;;;15.10;95.90;;;;;;4944504;28;20043;-65
2023/06/10 07:12:05;;;;;;;0.75;0.75;;;15.20;95.80;;;;;;4945060;28;20102;-66
2023/06/10 07:14:32;;;;;;;1.88;1.10;;;15.20;95.60;;;;;;4942546;28;20134;-65
2023/06/10 07:16:59;;;;;;;1.33;0.90;;;15.30;95.40;;;;;;4942184;28;20633;-72
2023/06/10 07:19:26;;;;;;;1.15;0.65;;;15.20;94.80;;;;;;4949001;28;20099;-75
2023/06/10 07:21:53;;;;;;;0.68;0.57;;;15.30;95.00;;;;;;4935659;28;20065;-72
2023/06/10 07:24:20;;;;;;;2.38;1.00;;;15.30;94.90;;;;;;4940109;28;20477;-70
2023/06/10 07:26:47;;;;;;;0.68;0.68;;;15.40;93.60;;;;;;4936256;28;20114;-68
2023/06/10 07:29:14;;;;;;;1.15;0.60;;;15.40;93.00;;;;;;4946117;28;20059;-66
2023/06/10 07:31:42;;;;;;;1.42;1.33;;;15.50;93.30;;;;;;4944561;28;20082;-64
2023/06/10 07:34:09;;;;;;;0.70;0.70;;;15.60;93.60;;;;;;4944733;28;20498;-68
2023/06/10 07:36:36;;;;;;;6.32;0.70;;;15.70;94.10;;;;;;4941332;28;20059;-70
2023/06/10 07:39:04;;;;;;;0.70;0.70;;;15.70;94.00;;;;;;4940122;28;20051;-64
2023/06/10 07:41:31;;;;;;;3.78;1.13;;;15.90;93.50;;;;;;4941025;28;20057;-68
2023/06/10 07:43:58;;;;;;;2.30;0.80;;;16.00;92.70;;;;;;4949628;28;20125;-68
2023/06/10 07:46:26;;;;;;;0.93;0.65;;;16.10;91.70;;;;;;4939613;28;20054;-64
2023/06/10 07:48:54;;;;;;;1.10;0.68;;;16.10;91.30;;;;;;4935904;28;20047;-69
2023/06/10 07:51:22;;;;;;;1.98;0.70;;;16.10;90.70;;;;;;4929619;28;20216;-64
2023/06/10 07:53:48;;;;;;;2.42;0.70;;;16.20;90.20;;;;;;4937784;28;20110;-73
2023/06/10 07:56:15;;;;;;;1.42;0.93;;;16.20;90.50;;;;;;4937573;28;20733;-70
2023/06/10 07:58:42;;;;;;;0.85;0.75;;;16.30;90.50;;;;;;4935738;28;20079;-66
2023/06/10 08:01:09;;;;;;;2.05;0.70;;;16.40;90.50;;;;;;4938949;28;20051;-64
2023/06/10 08:03:36;;;;;;;1.75;0.88;;;16.50;90.20;;;;;;4954211;28;20059;-72
2023/06/10 08:06:04;;;;;;;1.13;0.70;;;16.50;90.40;;;;;;4937941;28;20115;-67
2023/06/10 08:08:30;;;;;;;0.80;0.70;;;16.50;90.50;;;;;;4941995;28;20051;-66
2023/06/10 08:10:57;;;;;;;1.00;0.68;;;16.70;90.10;;;;;;4941188;28;20078;-65
2023/06/10 08:13:24;;;;;;;1.50;1.05;;;16.70;89.40;;;;;;4941745;28;20097;-72
2023/06/10 08:15:53;;;;;;;11.68;1.83;;;16.90;90.00;;;;;;4944595;28;20106;-66
2023/06/10 08:18:20;;;;;;;0.75;0.73;;;16.90;87.90;;;;;;4958530;28;20059;-65
2023/06/10 08:20:47;;;;;;;2.03;0.88;;;16.90;88.10;;;;;;4942709;28;20098;-71
2023/06/10 08:23:14;;;;;;;0.80;0.60;;;16.80;87.60;;;;;;4939510;28;20055;-66
2023/06/10 08:25:41;;;;;;;0.65;0.63;;;16.90;86.60;;;;;;4942416;28;20090;-66
2023/06/10 08:28:08;;;;;;;3.83;1.58;;;16.90;87.80;;;;;;4942583;28;20127;-67
2023/06/10 08:30:35;;;;;;;1.35;0.80;;;17.00;86.40;;;;;;4955639;28;20079;-64
2023/06/10 08:33:02;;;;;;;0.55;0.50;;;17.10;86.90;;;;;;4944822;28;20497;-71
2023/06/10 08:35:29;;;;;;;2.05;0.47;;;17.20;87.70;;;;;;4946058;28;20501;-65
2023/06/10 08:37:56;;;;;;;0.50;0.50;;;17.20;87.10;;;;;;4943140;28;20162;-66
2023/06/10 08:40:24;;;;;;;1.30;0.57;;;17.30;87.30;;;;;;4946219;28;20126;-69
2023/06/10 08:43:04;;;;;;;1.17;0.50;;;17.30;84.10;;;;;;4942054;28;20454;-78
2023/06/10 08:45:32;;;;;;;0.68;0.55;;;17.40;82.40;;;;;;4939096;28;20115;-64
2023/06/10 08:47:59;;;;;;;1.85;0.90;;;17.40;84.70;;;;;;4941067;28;20116;-63
2023/06/10 08:50:29;;;;;;;2.25;0.47;;;17.50;83.00;;;;;;4941192;28;20051;-76
2023/06/10 08:52:58;;;;;;;0.52;0.38;;;17.50;82.70;;;;;;4933018;28;20922;-66
2023/06/10 08:55:41;;;;;;;1.70;0.52;;;17.60;83.80;;;;;;4941544;28;20062;-64
2023/06/10 08:58:08;;;;;;;1.00;0.90;;;17.70;85.00;;;;;;4937915;28;20048;-74
2023/06/10 09:00:36;;;;;;;1.08;0.80;;;17.80;84.00;;;;;;4936985;28;20103;-65
2023/06/10 09:03:04;;;;;;;0.95;0.65;;;17.90;84.30;;;;;;4937310;28;20084;-70
2023/06/10 09:05:36;;;;;;;1.63;0.60;;;18.00;84.00;;;;;;4938591;28;20051;-68
2023/06/10 09:08:05;;;;;;;2.15;0.60;;;18.10;83.50;;;;;;4941968;28;20106;-74
2023/06/10 09:10:33;;;;;;;4.05;0.60;;;18.20;80.20;;;;;;4946396;28;20046;-70
2023/06/10 09:13:00;;;;;;;0.52;0.50;;;18.30;80.00;;;;;;4943170;28;20047;-68
2023/06/10 09:15:27;;;;;;;1.90;0.45;;;18.20;79.20;;;;;;4948809;28;20520;-66
2023/06/10 09:17:54;;;;;;;0.45;0.40;;;18.20;77.40;;;;;;4944100;28;20484;-80
2023/06/10 09:20:23;;;;;;;1.58;1.48;;;18.10;78.60;;;;;;4947746;28;20051;-65
2023/06/10 09:22:50;;;;;;;0.77;0.63;;;18.10;79.60;;;;;;4943531;28;20509;-72
2023/06/10 09:25:17;;;;;;;2.38;0.88;;;18.20;79.80;;;;;;4950257;28;20055;-66
2023/06/10 09:27:53;;;;;;;0.50;0.45;;;18.00;80.20;;;;;;4946296;28;20067;-66
2023/06/10 09:30:25;;;;;;;5.35;1.02;;;18.00;80.00;;;;;;4946118;28;20090;-75
2023/06/10 09:32:57;;;;;;;1.05;0.98;;;18.10;80.40;;;;;;4943875;28;20062;-64
2023/06/10 09:35:25;;;;;;;2.05;0.40;;;18.30;79.40;;;;;;4945946;28;20130;-71
2023/06/10 09:37:59;;;;;;;1.35;0.50;;;18.40;80.00;;;;;;4946576;28;20182;-82
2023/06/10 09:40:27;;;;;;;0.82;0.75;;;18.40;79.60;;;;;;4951877;28;20504;-65
2023/06/10 09:42:57;;;;;;;0.73;0.52;;;18.50;80.20;;;;;;4949686;28;20059;-66
2023/06/10 09:45:31;;;;;;;1.45;0.50;;;18.60;78.00;;;;;;4950610;28;21215;-68
2023/06/10 09:47:58;;;;;;;3.40;0.63;;;18.70;79.60;;;;;;4947571;28;20051;-78
2023/06/10 09:50:25;;;;;;;1.20;0.68;;;18.70;79.30;;;;;;4953399;28;20047;-69
2023/06/10 09:52:53;;;;;;;0.80;0.80;;;18.70;80.10;;;;;;4942338;28;20055;-68
2023/06/10 09:55:19;;;;;;;0.70;0.50;;;18.80;79.70;;;;;;4948488;28;20082;-66
2023/06/10 09:57:49;;;;;;;2.53;0.57;;;19.00;80.60;;;;;;4950491;28;20082;-77
2023/06/10 10:00:17;;;;;;;1.55;0.70;;;19.10;79.10;;;;;;4950625;28;20057;-64
2023/06/10 10:02:51;;;;;;;1.88;1.02;;;19.20;78.70;;;;;;4948980;28;20079;-67
2023/06/10 10:05:21;;;;;;;2.05;0.55;;;19.10;78.20;;;;;;4950409;28;20050;-67
2023/06/10 10:07:48;;;;;;;0.30;0.30;;;19.10;77.70;;;;;;4949771;28;20079;-65
2023/06/10 10:10:17;;;;;;;0.80;0.80;;;19.30;78.00;;;;;;4950311;28;20058;-64
2023/06/10 10:12:46;;;;;;;2.67;0.40;;;19.40;78.00;;;;;;4966536;28;20073;-69
2023/06/10 10:15:17;;;;;;;1.80;0.85;;;19.30;77.10;;;;;;4952457;28;20061;-68
2023/06/10 10:18:07;;;;;;;1.65;0.63;;;19.30;77.50;;;;;;4952286;28;20079;-72
2023/06/10 10:20:40;;;;;;;0.80;0.50;;;19.20;77.40;;;;;;4951022;28;20112;-67
2023/06/10 10:23:09;;;;;;;0.60;0.47;;;19.30;78.10;;;;;;4949532;28;20130;-67
2023/06/10 10:25:40;;;;;;;2.10;0.68;;;19.20;78.10;;;;;;4947477;28;20085;-70
2023/06/10 10:28:11;;;;;;;2.47;0.60;;;19.30;78.10;;;;;;4953614;28;20065;-66
2023/06/10 10:30:54;;;;;;;2.25;1.08;;;19.50;76.00;;;;;;4947484;28;20106;-71
2023/06/10 10:33:33;;;;;;;1.83;0.63;;;19.50;76.60;;;;;;4953992;28;20070;-70
2023/06/10 10:36:00;;;;;;;0.85;0.65;;;19.70;75.90;;;;;;4950066;28;20149;-73
2023/06/10 10:38:28;;;;;;;0.80;0.75;;;19.80;75.50;;;;;;4949914;28;20129;-70
2023/06/10 10:40:59;;;;;;;3.90;2.60;;;19.90;76.20;;;;;;4947182;28;20134;-69
2023/06/10 10:43:28;;;;;;;2.20;0.98;;;20.10;74.90;;;;;;4950001;28;20047;-68
2023/06/10 10:46:03;;;;;;;1.63;0.90;;;20.10;74.00;;;;;;4953132;28;20059;-79
2023/06/10 10:48:37;;;;;;;2.78;0.95;;;20.00;73.80;;;;;;4950666;28;20055;-71
2023/06/10 10:51:04;;;;;;;3.80;0.50;;;20.00;73.80;;;;;;4950464;28;20090;-68
2023/06/10 10:53:31;;;;;;;1.20;0.75;;;19.80;75.00;;;;;;4951298;28;20055;-76
2023/06/10 10:56:13;;;;;;;2.40;0.38;;;19.90;75.70;;;;;;4948907;28;20055;-67
2023/06/10 10:58:41;;;;;;;1.75;0.60;;;19.70;73.20;;;;;;4946814;28;20055;-73
2023/06/10 11:01:16;;;;;;;0.70;0.45;;;19.60;74.70;;;;;;4949030;28;20908;-69
2023/06/10 11:03:46;;;;;;;0.65;0.65;;;19.70;73.80;;;;;;4949131;28;20051;-80
2023/06/10 11:06:15;;;;;;;2.40;0.63;;;19.80;73.80;;;;;;4949200;28;20054;-69
2023/06/10 11:08:43;;;;;;;2.15;0.22;;;19.90;75.10;;;;;;4962411;28;20051;-65
2023/06/10 11:11:49;;;;;;;0.47;0.40;;;19.90;72.40;;;;;;4951370;28;20118;-69
2023/06/10 11:14:29;;;;;;;0.65;0.60;;;20.00;73.00;;;;;;4947639;28;20048;-67
2023/06/10 11:16:58;;;;;;;0.52;0.52;;;20.10;72.80;;;;;;4949903;28;20150;-65
2023/06/10 11:19:34;;;;;;;0.80;0.68;;;20.20;72.70;;;;;;4950831;28;20137;-78
2023/06/10 11:22:07;;;;;;;0.30;0.30;;;20.30;72.50;;;;;;4949405;28;20055;-77
2023/06/10 11:24:34;;;;;;;1.23;0.70;;;20.40;72.40;;;;;;4950101;28;20055;-76
2023/06/10 11:27:21;;;;;;;0.98;0.68;;;20.30;72.70;;;;;;4947714;28;20437;-70
2023/06/10 11:30:07;;;;;;;0.75;0.35;;;20.40;72.20;;;;;;4948592;28;20058;-65
2023/06/10 11:32:34;;;;;;;2.58;0.85;;;20.20;70.90;;;;;;4949603;28;20134;-68
2023/06/10 11:35:07;;;;;;;1.65;0.68;;;20.10;72.30;;;;;;4946121;28;20055;-73
2023/06/10 11:37:34;;;;;;;0.73;0.40;;;20.20;73.00;;;;;;4940645;28;20814;-76
2023/06/10 11:40:02;;;;;;;1.77;0.30;;;20.30;71.90;;;;;;4946471;28;20094;-65
2023/06/10 11:42:29;;;;;;;1.42;0.73;;;20.40;73.10;;;;;;4950833;28;20169;-65
2023/06/10 11:44:56;;;;;;;1.98;0.52;;;20.60;73.60;;;;;;4948909;28;20047;-80
2023/06/10 11:47:23;;;;;;;1.15;0.65;;;20.70;71.00;;;;;;4953657;28;20053;-75
2023/06/10 11:49:57;;;;;;;0.70;0.60;;;20.70;70.70;;;;;;4952125;28;20049;-67
2023/06/10 11:52:28;;;;;;;1.77;0.43;;;20.60;70.30;;;;;;4948040;28;20054;-65
2023/06/10 11:54:55;;;;;;;1.75;0.63;;;20.60;70.80;;;;;;4952127;28;20050;-65
2023/06/10 11:57:22;;;;;;;0.77;0.35;;;20.60;71.10;;;;;;4952543;28;20130;-68
2023/06/10 11:59:49;;;;;;;2.50;0.50;;;20.70;72.80;;;;;;4953555;28;20086;-71
2023/06/10 12:02:18;;;;;;;2.22;0.70;;;20.80;73.60;;;;;;4951294;28;20122;-72
2023/06/10 12:04:46;;;;;;;0.97;0.90;;;20.90;70.90;;;;;;4952743;28;20047;-68
2023/06/10 12:07:19;;;;;;;1.52;0.63;;;20.90;72.10;;;;;;4952514;28;20141;-65
2023/06/10 12:09:46;;;;;;;0.77;0.57;;;20.90;71.30;;;;;;4949872;28;20054;-75
2023/06/10 12:12:14;;;;;;;0.85;0.52;;;21.00;72.30;;;;;;4952930;28;20110;-70
2023/06/10 12:15:04;;;;;;;2.72;0.70;;;21.10;73.00;;;;;;4948751;28;20053;-65
2023/06/10 12:17:31;;;;;;;0.52;0.38;;;21.20;70.00;;;;;;4950444;28;20074;-68
2023/06/10 12:20:04;;;;;;;0.93;0.55;;;21.10;69.30;;;;;;4951490;28;20053;-68
2023/06/10 12:22:42;;;;;;;2.45;0.47;;;21.10;70.60;;;;;;4949810;28;20598;-65
2023/06/10 12:25:09;;;;;;;0.60;0.40;;;21.00;70.20;;;;;;4950319;28;20054;-69
2023/06/10 12:27:40;;;;;;;2.28;0.30;;;20.90;69.50;;;;;;4949621;28;20047;-63
2023/06/10 12:30:08;;;;;;;0.80;0.30;;;20.90;70.50;;;;;;4950725;28;20132;-79
2023/06/10 12:32:39;;;;;;;0.73;0.55;;;21.00;70.70;;;;;;4949301;28;20047;-64
2023/06/10 12:35:07;;;;;;;1.25;0.52;;;20.90;71.00;;;;;;4947943;28;20134;-66
2023/06/10 12:37:35;;;;;;;2.92;1.10;;;20.90;68.70;;;;;;4946890;28;20065;-82
2023/06/10 12:40:08;;;;;;;0.63;0.30;;;21.00;69.10;;;;;;4947988;28;20907;-77
2023/06/10 12:42:37;;;;;;;0.65;0.50;;;20.90;70.00;;;;;;4952283;28;19933;-65
2023/06/10 12:45:06;;;;;;;0.70;0.70;;;21.00;70.70;;;;;;4948242;28;20050;-67
2023/06/10 12:47:39;;;;;;;1.05;0.70;;;21.10;69.90;;;;;;4950021;28;20885;-69
2023/06/10 12:50:07;;;;;;;0.32;0.32;;;20.90;69.50;;;;;;4950390;28;20135;-78
2023/06/10 12:52:34;;;;;;;3.10;0.43;;;21.00;69.70;;;;;;4950443;28;20086;-65
2023/06/10 12:55:01;;;;;;;0.93;0.60;;;21.20;70.20;;;;;;4950328;28;20131;-73
2023/06/10 12:57:29;;;;;;;1.92;0.35;;;21.20;69.80;;;;;;4951067;28;20093;-76
2023/06/10 13:00:03;;;;;;;9.57;0.70;;;21.30;69.00;;;;;;4949851;28;20122;-73